CDT,Max TemperatureF,Mean TemperatureF,Min TemperatureF,Max Dew PointF,MeanDew PointF,Min DewpointF,Max Humidity, Mean Humidity, Min Humidity, Max Sea Level PressureIn, Mean Sea Level PressureIn, Min Sea Level PressureIn, Max VisibilityMiles, Mean VisibilityMiles, Min VisibilityMiles, Max Wind SpeedMPH, Mean Wind SpeedMPH, Max Gust SpeedMPH,PrecipitationIn, CloudCover, Events, WindDirDegrees
2011-9-1,102,88,73,68,61,54,73,47,21,30.03,29.95,29.87,10,10,9,17,7,25,0.00,1,,132
2011-9-2,102,90,78,69,62,55,71,47,23,29.95,29.88,29.80,10,10,10,22,10,31,0.00,0,,110
2011-9-3,96,84,71,63,61,57,68,49,30,29.83,29.77,29.72,10,10,10,25,11,32,0.00,0,,55
2011-9-4,96,86,75,65,61,58,60,44,28,29.82,29.72,29.68,10,10,10,31,16,43,T,3,Rain,14
2011-9-5,88,77,66,62,44,30,60,37,13,29.99,29.91,29.82,10,10,10,22,13,30,0.00,1,,357
2011-9-6,90,74,58,45,41,32,57,36,14,30.10,30.04,29.97,10,8,2,15,4,21,0.00,3,,37
2011-9-7,91,73,55,43,37,31,59,36,12,30.17,30.08,30.04,10,9,6,15,4,20,0.00,0,,30
2011-9-8,90,77,63,43,38,32,42,28,14,30.15,30.06,29.97,10,10,10,14,4,20,0.00,0,,355
2011-9-9,91,74,56,45,37,27,55,33,10,30.03,29.98,29.92,10,10,10,15,5,21,0.00,0,,340
2011-9-10,94,75,56,48,41,38,55,35,15,30.06,29.99,29.95,10,10,10,16,3,22,0.00,0,,286
2011-9-11,99,80,61,54,46,39,78,46,14,30.08,30.02,29.98,10,10,10,18,5,23,0.00,0,,307
2011-9-12,102,83,63,57,48,39,63,38,12,30.12,30.03,29.94,10,10,9,13,4,16,0.00,0,,200
2011-9-13,106,88,70,55,50,46,53,34,14,29.97,29.91,29.83,10,10,10,14,8,20,0.00,0,,204
2011-9-14,100,90,79,59,53,47,49,33,17,29.97,29.90,29.85,10,10,10,12,7,15,0.02,0,,233
2011-9-15,85,77,68,62,57,55,68,54,40,30.14,30.08,29.98,10,10,5,18,9,24,0.00,1,,53
2011-9-16,92,80,67,59,56,53,63,49,34,30.18,30.10,30.00,10,10,10,16,9,22,0.00,3,,114
2011-9-17,94,83,72,64,61,57,64,47,30,30.10,30.02,29.94,10,10,10,16,10,22,0.00,1,,170
2011-9-18,94,80,65,73,68,63,100,70,39,30.07,30.00,29.88,10,8,0,16,11,18,1.24,4,Fog-Rain-Thunderstorm,187
2011-9-19,88,78,67,67,64,56,100,67,34,30.07,30.01,29.94,10,10,9,17,6,22,0.10,5,Rain-Thunderstorm,270
2011-9-20,90,78,66,66,60,53,93,62,31,30.02,29.96,29.88,10,10,6,9,3,12,0.00,1,,77
2011-9-21,92,80,68,70,60,54,81,55,29,30.05,29.99,29.95,10,10,10,12,4,15,0.00,1,,126
2011-9-22,89,78,66,71,63,60,87,64,40,30.11,30.03,29.97,10,10,7,22,6,29,0.03,2,Rain-Thunderstorm,320
2011-9-23,84,73,62,61,56,46,90,58,25,30.15,30.09,30.01,10,10,10,13,5,16,0.00,3,,33
2011-9-24,92,75,58,55,49,40,80,49,17,30.02,29.91,29.78,10,10,10,14,7,18,0.00,0,,178
2011-9-25,100,87,73,68,60,51,84,54,24,29.78,29.72,29.64,10,10,9,28,14,33,0.00,0,,219
2011-9-26,93,79,64,64,61,56,84,60,36,29.92,29.83,29.77,10,10,10,13,6,17,0.00,0,,60
2011-9-27,95,81,67,66,64,61,87,63,39,29.93,29.86,29.78,10,10,9,15,4,21,0.00,1,,67
2011-9-28,95,83,70,64,58,52,73,50,26,29.95,29.88,29.81,10,10,10,10,4,15,0.00,0,,41
2011-9-29,99,83,67,63,55,50,66,44,21,29.96,29.89,29.81,10,10,10,13,5,17,0.00,1,,136
2011-9-30,86,71,56,60,39,25,54,33,11,30.16,30.07,29.94,10,10,10,22,9,30,0.00,0,,23